createdAt,value
2023-03-21T00:00:19.324Z,1003.86
2023-03-21T00:01:19.505Z,1003.84
2023-03-21T00:02:19.325Z,1003.85
2023-03-21T00:03:19.378Z,1003.83
2023-03-21T00:04:19.279Z,1003.83
2023-03-21T00:05:19.301Z,1003.83
2023-03-21T00:06:19.559Z,1003.80
2023-03-21T00:07:19.268Z,1003.79
2023-03-21T00:08:19.303Z,1003.78
2023-03-21T00:09:19.335Z,1003.76
2023-03-21T00:10:29.766Z,1003.75
2023-03-21T00:11:19.209Z,1003.73
2023-03-21T00:12:19.292Z,1003.69
2023-03-21T00:13:19.248Z,1003.68
2023-03-21T00:14:19.237Z,1003.69
2023-03-21T00:15:22.575Z,1003.68
2023-03-21T00:16:23.108Z,1003.69
2023-03-21T00:34:15.217Z,1003.65
2023-03-21T00:34:27.090Z,1003.62
2023-03-21T00:35:53.696Z,1003.60
2023-03-21T00:36:20.190Z,1003.62
2023-03-21T00:37:20.206Z,1003.57
2023-03-21T00:38:20.174Z,1003.56
2023-03-21T00:39:20.164Z,1003.56
2023-03-21T00:40:27.916Z,1003.56
2023-03-21T00:41:35.042Z,1003.54
2023-03-21T00:42:20.104Z,1003.55
2023-03-21T00:43:20.121Z,1003.53
2023-03-21T00:44:20.084Z,1003.55
2023-03-21T00:45:20.097Z,1003.50
2023-03-21T00:47:20.325Z,1003.49
2023-03-21T00:48:21.340Z,1003.50
2023-03-21T00:49:21.301Z,1003.47
2023-03-21T00:50:21.302Z,1003.44
2023-03-21T00:51:21.271Z,1003.46
2023-03-21T00:52:30.789Z,1003.44
2023-03-21T00:53:21.260Z,1003.41
2023-03-21T00:54:21.232Z,1003.44
2023-03-21T00:55:21.201Z,1003.40
2023-03-21T00:56:21.230Z,1003.38
2023-03-21T00:57:29.347Z,1003.37
2023-03-21T00:58:21.184Z,1003.38
2023-03-21T00:59:21.201Z,1003.37
2023-03-21T01:00:21.149Z,1003.34
2023-03-21T01:01:21.160Z,1003.36
2023-03-21T01:02:21.230Z,1003.33
2023-03-21T01:03:25.362Z,1003.34
2023-03-21T01:04:21.229Z,1003.29
2023-03-21T01:05:21.098Z,1003.34
2023-03-21T01:06:21.105Z,1003.33
2023-03-21T01:07:21.098Z,1003.29
2023-03-21T01:08:26.854Z,1003.28
2023-03-21T01:09:21.062Z,1003.28
2023-03-21T01:10:21.070Z,1003.29
2023-03-21T01:11:21.041Z,1003.27
2023-03-21T01:12:21.063Z,1003.24
2023-03-21T01:13:21.009Z,1003.25
2023-03-21T01:14:23.541Z,1003.24
2023-03-21T01:15:20.993Z,1003.23
2023-03-21T01:16:21.072Z,1003.21
2023-03-21T01:17:20.967Z,1003.22
2023-03-21T01:18:20.986Z,1003.21
2023-03-21T01:19:27.426Z,1003.20
2023-03-21T01:20:20.942Z,1003.19
2023-03-21T01:21:20.925Z,1003.18
2023-03-21T01:22:20.937Z,1003.18
2023-03-21T01:23:20.931Z,1003.17
2023-03-21T01:24:20.971Z,1003.20
2023-03-21T01:25:22.659Z,1003.18
2023-03-21T01:26:20.878Z,1003.17
2023-03-21T01:27:20.889Z,1003.17
2023-03-21T01:28:20.854Z,1003.17
2023-03-21T01:29:20.833Z,1003.15
2023-03-21T01:30:24.050Z,1003.16
2023-03-21T01:31:20.841Z,1003.17
2023-03-21T01:32:20.850Z,1003.17
2023-03-21T01:33:20.863Z,1003.17
2023-03-21T01:34:20.812Z,1003.16
2023-03-21T01:35:20.789Z,1003.14
2023-03-21T01:36:23.182Z,1003.15
2023-03-21T01:37:20.776Z,1003.12
2023-03-21T01:38:20.769Z,1003.12
2023-03-21T01:39:20.760Z,1003.11
2023-03-21T01:40:20.751Z,1003.11
2023-03-21T01:41:20.709Z,1003.10
2023-03-21T01:42:20.740Z,1003.11
2023-03-21T01:43:20.697Z,1003.12
2023-03-21T01:44:20.744Z,1003.12
2023-03-21T01:45:20.689Z,1003.13
2023-03-21T01:46:20.780Z,1003.08
2023-03-21T01:47:20.641Z,1003.10
2023-03-21T01:48:20.669Z,1003.09
2023-03-21T01:49:20.674Z,1003.09
2023-03-21T01:50:20.645Z,1003.11
2023-03-21T01:51:20.627Z,1003.11
2023-03-21T01:52:35.424Z,1003.10
2023-03-21T01:53:20.582Z,1003.07
2023-03-21T01:54:20.599Z,1003.06
2023-03-21T01:55:20.562Z,1003.05
2023-03-21T01:56:20.581Z,1003.03
2023-03-21T01:57:20.984Z,1003.04
2023-03-21T01:58:20.544Z,1003.02
2023-03-21T01:59:20.525Z,1003.01
2023-03-21T02:00:20.519Z,1003.03
2023-03-21T02:01:20.516Z,1003.03
2023-03-21T02:02:20.543Z,1002.98
2023-03-21T02:03:33.340Z,1003.00
2023-03-21T02:04:20.527Z,1002.97
2023-03-21T02:05:20.446Z,1003.02
2023-03-21T02:06:20.467Z,1002.99
2023-03-21T02:07:20.489Z,1002.98
2023-03-21T02:08:22.271Z,1002.96
2023-03-21T02:09:20.407Z,1002.98
2023-03-21T02:10:20.425Z,1002.95
2023-03-21T02:11:20.400Z,1002.93
2023-03-21T02:12:20.391Z,1002.93
2023-03-21T02:13:20.401Z,1002.92
2023-03-21T02:14:29.096Z,1002.92
2023-03-21T02:15:20.354Z,1002.94
2023-03-21T02:16:20.468Z,1002.92
2023-03-21T02:17:20.332Z,1002.91
2023-03-21T02:18:20.341Z,1002.90
2023-03-21T02:19:29.597Z,1002.91
2023-03-21T02:20:20.346Z,1002.87
2023-03-21T02:21:20.283Z,1002.91
2023-03-21T02:22:20.405Z,1002.84
2023-03-21T02:23:20.257Z,1002.85
2023-03-21T02:24:20.267Z,1002.84
2023-03-21T02:25:24.762Z,1002.85
2023-03-21T02:26:20.249Z,1002.84
2023-03-21T02:27:20.239Z,1002.81
2023-03-21T02:28:20.226Z,1002.82
2023-03-21T02:29:20.201Z,1002.81
2023-03-21T02:30:29.460Z,1002.83
2023-03-21T02:31:20.251Z,1002.77
2023-03-21T02:32:31.523Z,1002.76
2023-03-21T02:33:20.174Z,1002.75
2023-03-21T02:34:20.157Z,1002.73
2023-03-21T02:35:20.148Z,1002.74
2023-03-21T02:36:20.173Z,1002.70
2023-03-21T02:37:23.591Z,1002.70
2023-03-21T02:38:20.135Z,1002.69
2023-03-21T02:39:20.089Z,1002.67
2023-03-21T02:40:20.096Z,1002.65
2023-03-21T02:41:20.191Z,1002.66
2023-03-21T02:42:20.100Z,1002.70
2023-03-21T02:43:23.312Z,1002.65
2023-03-21T02:44:20.056Z,1002.64
2023-03-21T02:45:20.025Z,1002.63
2023-03-21T02:46:21.475Z,1002.63
2023-03-21T02:47:19.993Z,1002.63
2023-03-21T02:48:29.341Z,1002.60
2023-03-21T02:49:20.015Z,1002.64
2023-03-21T02:50:19.990Z,1002.63
2023-03-21T02:51:19.988Z,1002.62
2023-03-21T02:52:35.535Z,1002.62
2023-03-21T02:53:19.943Z,1002.63
2023-03-21T02:54:34.882Z,1002.59
2023-03-21T02:55:19.927Z,1002.58
2023-03-21T02:56:19.928Z,1002.58
2023-03-21T02:57:19.917Z,1002.58
2023-03-21T02:58:19.887Z,1002.58
2023-03-21T02:59:19.920Z,1002.57
2023-03-21T03:00:19.874Z,1002.56
2023-03-21T03:01:19.861Z,1002.57
2023-03-21T03:02:19.863Z,1002.56
2023-03-21T03:03:33.044Z,1002.55
2023-03-21T03:04:19.869Z,1002.52
2023-03-21T03:05:21.916Z,1002.52
2023-03-21T03:06:19.837Z,1002.52
2023-03-21T03:07:19.796Z,1002.51
2023-03-21T03:08:24.044Z,1002.50
2023-03-21T03:09:19.807Z,1002.51
2023-03-21T03:10:19.773Z,1002.51
2023-03-21T03:11:19.751Z,1002.48
2023-03-21T03:12:19.746Z,1002.46
2023-03-21T03:13:19.723Z,1002.45
2023-03-21T03:15:19.727Z,1002.44
2023-03-21T03:16:19.703Z,1002.45
2023-03-21T03:17:19.719Z,1002.44
2023-03-21T03:18:19.696Z,1002.44
2023-03-21T03:19:19.668Z,1002.44
2023-03-21T03:20:19.674Z,1002.42
2023-03-21T03:21:19.666Z,1002.43
2023-03-21T03:22:19.652Z,1002.44
2023-03-21T03:23:19.768Z,1002.44
2023-03-21T03:24:19.620Z,1002.43
2023-03-21T03:25:29.826Z,1002.44
2023-03-21T03:26:19.658Z,1002.42
2023-03-21T03:27:19.597Z,1002.43
2023-03-21T03:28:19.594Z,1002.42
2023-03-21T03:29:19.566Z,1002.39
2023-03-21T03:30:19.605Z,1002.42
2023-03-21T03:31:20.924Z,1002.41
2023-03-21T03:32:19.552Z,1002.39
2023-03-21T03:33:19.524Z,1002.39
2023-03-21T03:34:19.513Z,1002.39
2023-03-21T03:35:19.494Z,1002.37
2023-03-21T03:36:31.132Z,1002.38
2023-03-21T03:37:19.464Z,1002.35
2023-03-21T03:38:19.482Z,1002.36
2023-03-21T03:39:19.449Z,1002.36
2023-03-21T03:40:19.446Z,1002.36
2023-03-21T03:41:19.741Z,1002.36
2023-03-21T03:42:28.153Z,1002.39
2023-03-21T03:43:19.415Z,1002.38
2023-03-21T03:44:19.436Z,1002.37
2023-03-21T03:45:19.380Z,1002.36
2023-03-21T03:46:19.448Z,1002.37
2023-03-21T03:47:31.733Z,1002.35
2023-03-21T03:48:19.423Z,1002.35
2023-03-21T03:49:19.350Z,1002.33
2023-03-21T03:50:19.343Z,1002.32
2023-03-21T03:51:19.325Z,1002.31
2023-03-21T03:52:19.349Z,1002.28
2023-03-21T03:53:19.296Z,1002.29
2023-03-21T03:54:19.302Z,1002.29
2023-03-21T03:55:19.310Z,1002.29
2023-03-21T03:56:19.315Z,1002.29
2023-03-21T03:57:19.292Z,1002.27
2023-03-21T03:58:23.784Z,1002.26
2023-03-21T03:59:19.285Z,1002.27
2023-03-21T04:00:19.285Z,1002.26
2023-03-21T04:01:19.258Z,1002.27
2023-03-21T04:02:19.375Z,1002.26
2023-03-21T04:03:19.225Z,1002.26
2023-03-21T04:04:19.241Z,1002.26
2023-03-21T04:05:19.189Z,1002.23
2023-03-21T04:06:19.171Z,1002.27
2023-03-21T04:07:19.623Z,1002.23
2023-03-21T04:08:19.251Z,1002.24
2023-03-21T04:09:24.978Z,1002.23
2023-03-21T04:10:19.223Z,1002.24
2023-03-21T04:11:19.135Z,1002.19
2023-03-21T04:12:19.132Z,1002.20
2023-03-21T04:13:19.241Z,1002.20
2023-03-21T04:14:19.103Z,1002.19
2023-03-21T04:15:19.071Z,1002.19
2023-03-21T04:16:19.147Z,1002.20
2023-03-21T04:17:19.180Z,1002.17
2023-03-21T04:18:19.078Z,1002.15
2023-03-21T04:19:19.287Z,1002.15
2023-03-21T04:20:30.282Z,1002.13
2023-03-21T04:21:19.091Z,1002.13
2023-03-21T04:22:19.026Z,1002.11
2023-03-21T04:23:19.030Z,1002.08
2023-03-21T04:24:19.285Z,1002.07
2023-03-21T04:25:30.802Z,1002.07
2023-03-21T04:26:19.200Z,1002.05
2023-03-21T04:27:19.222Z,1002.06
2023-03-21T04:28:19.072Z,1002.07
2023-03-21T04:29:18.965Z,1002.06
2023-03-21T04:30:19.018Z,1002.06
2023-03-21T04:31:25.636Z,1002.05
2023-03-21T04:32:19.064Z,1002.04
2023-03-21T04:33:19.050Z,1002.05
2023-03-21T04:34:18.888Z,1002.04
2023-03-21T04:35:18.918Z,1002.05
2023-03-21T04:36:19.134Z,1002.05
2023-03-21T04:37:19.195Z,1002.05
2023-03-21T04:38:19.187Z,1002.06
2023-03-21T04:39:18.851Z,1002.07
2023-03-21T04:40:18.924Z,1002.08
2023-03-21T04:41:18.913Z,1002.07
2023-03-21T04:42:19.088Z,1002.05
2023-03-21T04:43:18.769Z,1002.04
2023-03-21T04:44:18.808Z,1002.03
2023-03-21T04:45:18.751Z,1002.04
2023-03-21T04:46:18.765Z,1002.03
2023-03-21T04:47:18.736Z,1002.01
2023-03-21T04:48:18.775Z,1002.02
2023-03-21T04:49:18.731Z,1002.00
2023-03-21T04:50:18.744Z,1002.01
2023-03-21T04:51:18.707Z,1001.99
2023-03-21T04:52:18.715Z,1001.98
2023-03-21T04:53:18.731Z,1001.96
2023-03-21T04:54:18.691Z,1001.97
2023-03-21T04:55:18.637Z,1001.96
2023-03-21T04:56:18.688Z,1001.96
2023-03-21T04:57:18.690Z,1001.96
2023-03-21T04:58:18.672Z,1001.97
2023-03-21T04:59:18.633Z,1001.98
2023-03-21T05:00:18.705Z,1001.98
2023-03-21T05:01:18.703Z,1001.99
2023-03-21T05:02:18.682Z,1002.00
2023-03-21T05:03:18.588Z,1002.01
2023-03-21T05:04:18.722Z,1001.99
2023-03-21T05:05:18.555Z,1001.99
2023-03-21T05:06:18.526Z,1001.99
2023-03-21T05:07:18.508Z,1001.99
2023-03-21T05:08:18.509Z,1001.99
2023-03-21T05:09:18.515Z,1001.99
2023-03-21T05:10:18.473Z,1001.99
2023-03-21T05:11:18.454Z,1002.00
2023-03-21T05:12:18.416Z,1002.01
2023-03-21T05:13:18.392Z,1002.01
2023-03-21T05:14:18.408Z,1002.01
2023-03-21T05:15:18.368Z,1002.01
2023-03-21T05:16:18.478Z,1002.01
2023-03-21T05:17:18.385Z,1002.02
2023-03-21T05:18:18.340Z,1002.00
2023-03-21T05:19:18.341Z,1002.00
2023-03-21T05:20:18.447Z,1002.00
2023-03-21T05:21:18.487Z,1002.00
2023-03-21T05:22:18.360Z,1001.98
2023-03-21T05:23:18.337Z,1001.98
2023-03-21T05:24:18.295Z,1001.97
2023-03-21T05:25:18.352Z,1001.98
2023-03-21T05:26:18.456Z,1001.97
2023-03-21T05:27:18.389Z,1001.98
2023-03-21T05:28:18.440Z,1001.96
2023-03-21T05:29:18.269Z,1001.97
2023-03-21T05:30:18.249Z,1001.96
2023-03-21T05:31:18.292Z,1001.95
2023-03-21T05:32:18.233Z,1001.96
2023-03-21T05:33:18.441Z,1001.96
2023-03-21T05:34:18.227Z,1001.96
2023-03-21T05:35:18.402Z,1001.96
2023-03-21T05:36:18.257Z,1001.96
2023-03-21T05:37:18.222Z,1001.97
2023-03-21T05:38:18.146Z,1001.98
2023-03-21T05:39:18.253Z,1001.97
2023-03-21T05:40:18.141Z,1001.98
2023-03-21T05:41:19.270Z,1001.98
2023-03-21T05:42:18.328Z,1001.99
2023-03-21T05:43:18.189Z,1001.98
2023-03-21T05:44:18.119Z,1001.99
2023-03-21T05:45:18.138Z,1001.99
2023-03-21T05:46:18.103Z,1001.99
2023-03-21T05:47:18.095Z,1002.01
2023-03-21T05:48:18.091Z,1001.99
2023-03-21T05:49:18.086Z,1002.00
2023-03-21T05:50:18.041Z,1002.03
2023-03-21T05:51:18.022Z,1002.00
2023-03-21T05:52:18.035Z,1002.02
2023-03-21T05:53:17.975Z,1001.98
2023-03-21T05:54:17.972Z,1001.99
2023-03-21T05:55:17.958Z,1001.99
2023-03-21T05:56:17.940Z,1001.99
2023-03-21T05:57:17.940Z,1002.00
2023-03-21T05:58:17.938Z,1002.00
2023-03-21T05:59:17.912Z,1002.00
2023-03-21T06:00:17.909Z,1002.00
2023-03-21T06:01:17.911Z,1002.00
2023-03-21T06:02:17.891Z,1002.00
2023-03-21T06:03:17.873Z,1001.99
2023-03-21T06:04:17.934Z,1001.99
2023-03-21T06:05:17.869Z,1002.00
2023-03-21T06:06:18.221Z,1001.97
2023-03-21T06:07:17.832Z,1001.97
2023-03-21T06:08:17.901Z,1001.97
2023-03-21T06:09:17.961Z,1001.97
2023-03-21T06:10:17.957Z,1001.99
2023-03-21T06:11:17.832Z,1001.99
2023-03-21T06:12:18.630Z,1001.99
2023-03-21T06:13:17.821Z,1001.98
2023-03-21T06:14:17.766Z,1002.00
2023-03-21T06:15:17.768Z,1001.99
2023-03-21T06:16:18.866Z,1002.00
2023-03-21T06:17:17.737Z,1002.01
2023-03-21T06:18:17.718Z,1002.00
2023-03-21T06:19:17.739Z,1002.00
2023-03-21T06:20:17.758Z,1002.02
2023-03-21T06:21:17.793Z,1002.01
2023-03-21T06:22:17.651Z,1002.01
2023-03-21T06:23:17.679Z,1002.02
2023-03-21T06:24:17.685Z,1002.00
2023-03-21T06:25:17.663Z,1002.02
2023-03-21T06:26:17.638Z,1002.01
2023-03-21T06:27:17.612Z,1002.00
2023-03-21T06:28:17.598Z,1002.03
2023-03-21T06:29:17.715Z,1002.03
2023-03-21T06:30:17.580Z,1002.02
2023-03-21T06:31:17.668Z,1002.02
2023-03-21T06:32:17.577Z,1002.04
2023-03-21T06:33:17.584Z,1002.05
2023-03-21T06:34:17.544Z,1002.06
2023-03-21T06:35:17.524Z,1002.06
2023-03-21T06:36:17.523Z,1002.05
2023-03-21T06:37:17.588Z,1002.08
2023-03-21T06:38:17.541Z,1002.06
2023-03-21T06:39:17.516Z,1002.04
2023-03-21T06:40:17.485Z,1002.03
2023-03-21T06:41:17.491Z,1002.02
2023-03-21T06:42:17.443Z,1002.02
2023-03-21T06:43:17.459Z,1002.01
2023-03-21T06:44:17.440Z,1002.00
2023-03-21T06:45:17.430Z,1001.98
2023-03-21T06:46:17.574Z,1001.99
2023-03-21T06:48:28.338Z,1001.99
2023-03-21T06:49:29.317Z,1001.97
2023-03-21T06:50:29.341Z,1001.95
2023-03-21T06:51:29.461Z,1001.97
2023-03-21T06:52:29.263Z,1001.96
2023-03-21T06:53:29.497Z,1001.95
2023-03-21T06:54:29.490Z,1002.00
2023-03-21T06:55:29.193Z,1001.97
2023-03-21T06:56:29.150Z,1001.95
2023-03-21T06:57:29.168Z,1001.97
2023-03-21T06:58:29.152Z,1001.97
2023-03-21T06:59:29.177Z,1001.98
2023-03-21T07:00:29.165Z,1001.97
2023-03-21T07:01:29.279Z,1001.97
2023-03-21T07:02:29.189Z,1001.93
2023-03-21T07:03:29.136Z,1001.97
2023-03-21T07:04:29.088Z,1001.97
2023-03-21T07:05:29.113Z,1001.98
2023-03-21T07:06:29.057Z,1001.98
2023-03-21T07:07:29.150Z,1001.97
2023-03-21T07:08:29.087Z,1001.98
2023-03-21T07:09:29.028Z,1001.99
2023-03-21T07:10:29.048Z,1001.99
2023-03-21T07:11:29.042Z,1002.00
2023-03-21T07:12:28.984Z,1001.98
2023-03-21T07:13:29.017Z,1002.00
2023-03-21T07:14:28.983Z,1002.04
2023-03-21T07:15:29.014Z,1002.01
2023-03-21T07:16:28.990Z,1002.03
2023-03-21T07:17:28.962Z,1002.04
2023-03-21T07:18:29.018Z,1002.05
2023-03-21T07:19:28.938Z,1002.05
2023-03-21T07:20:29.009Z,1002.04
2023-03-21T07:21:28.903Z,1002.05
2023-03-21T07:22:28.890Z,1002.05
2023-03-21T07:23:28.907Z,1002.03
2023-03-21T07:24:28.866Z,1002.05
2023-03-21T07:25:28.985Z,1002.01
2023-03-21T07:26:28.877Z,1002.03
2023-03-21T07:27:29.056Z,1002.00
2023-03-21T07:28:29.021Z,1002.02
2023-03-21T07:29:28.868Z,1002.01
2023-03-21T07:30:29.113Z,1002.03
2023-03-21T07:31:28.964Z,1002.01
2023-03-21T07:32:28.813Z,1002.01
2023-03-21T07:33:29.144Z,1002.00
2023-03-21T07:34:28.940Z,1001.96
2023-03-21T07:35:29.032Z,1001.93
2023-03-21T07:36:28.775Z,1001.94
2023-03-21T07:37:29.737Z,1001.92
2023-03-21T07:38:29.060Z,1001.93
2023-03-21T07:39:28.726Z,1001.89
2023-03-21T07:40:29.021Z,1001.88
2023-03-21T07:41:28.945Z,1001.89
2023-03-21T07:42:29.317Z,1001.90
2023-03-21T07:43:28.844Z,1001.91
2023-03-21T07:44:28.774Z,1001.89
2023-03-21T07:45:28.733Z,1001.89
2023-03-21T07:46:29.105Z,1001.86
2023-03-21T07:47:28.812Z,1001.85
2023-03-21T07:48:28.648Z,1001.83
2023-03-21T07:49:28.608Z,1001.82
2023-03-21T07:50:28.654Z,1001.83
2023-03-21T07:51:28.584Z,1001.83
2023-03-21T07:52:28.640Z,1001.83
2023-03-21T07:53:28.586Z,1001.81
2023-03-21T07:54:28.546Z,1001.83
2023-03-21T07:55:28.538Z,1001.83
2023-03-21T07:56:28.550Z,1001.87
2023-03-21T07:57:28.730Z,1001.88
2023-03-21T07:58:28.590Z,1001.87
2023-03-21T07:59:28.665Z,1001.87
2023-03-21T08:00:28.554Z,1001.89
2023-03-21T08:01:28.509Z,1001.88
2023-03-21T08:02:28.667Z,1001.90
2023-03-21T08:03:28.507Z,1001.90
2023-03-21T08:04:29.153Z,1001.89
2023-03-21T08:05:28.443Z,1001.88
2023-03-21T08:06:28.419Z,1001.90
2023-03-21T08:07:28.424Z,1001.90
2023-03-21T08:08:28.386Z,1001.89
2023-03-21T08:09:30.739Z,1001.88
2023-03-21T08:10:28.505Z,1001.87
2023-03-21T08:11:28.368Z,1001.85
2023-03-21T08:12:28.351Z,1001.89
2023-03-21T08:13:28.343Z,1001.88
2023-03-21T08:14:28.352Z,1001.89
2023-03-21T08:15:28.423Z,1001.88
2023-03-21T08:16:28.500Z,1001.87
2023-03-21T08:17:28.332Z,1001.87
2023-03-21T08:18:28.300Z,1001.85
2023-03-21T08:19:28.360Z,1001.83
2023-03-21T08:20:28.304Z,1001.83
2023-03-21T08:21:28.284Z,1001.82
2023-03-21T08:22:28.269Z,1001.83
2023-03-21T08:23:28.269Z,1001.82
2023-03-21T08:24:28.240Z,1001.83
2023-03-21T08:25:28.252Z,1001.86
2023-03-21T08:26:28.237Z,1001.90
2023-03-21T08:27:28.680Z,1001.91
2023-03-21T08:28:28.313Z,1001.94
2023-03-21T08:29:28.469Z,1001.93
2023-03-21T08:30:28.217Z,1001.90
2023-03-21T08:31:28.195Z,1001.92
2023-03-21T08:32:28.145Z,1001.89
2023-03-21T08:33:28.163Z,1001.88
2023-03-21T08:34:28.122Z,1001.87
2023-03-21T08:35:28.140Z,1001.86
2023-03-21T08:36:28.094Z,1001.88
2023-03-21T08:37:28.093Z,1001.88
2023-03-21T08:38:28.070Z,1001.86
2023-03-21T08:39:28.564Z,1001.90
2023-03-21T08:40:28.225Z,1001.86
2023-03-21T08:41:28.149Z,1001.86
2023-03-21T08:42:28.043Z,1001.84
2023-03-21T08:43:28.051Z,1001.82
2023-03-21T08:44:28.568Z,1001.81
2023-03-21T08:45:28.061Z,1001.78
2023-03-21T08:46:28.005Z,1001.80
2023-03-21T08:47:27.991Z,1001.81
2023-03-21T08:48:29.072Z,1001.82
2023-03-21T08:49:28.027Z,1001.82
2023-03-21T08:50:27.989Z,1001.84
2023-03-21T08:51:28.030Z,1001.81
2023-03-21T08:52:27.974Z,1001.84
2023-03-21T08:53:27.944Z,1001.81
2023-03-21T08:54:27.949Z,1001.84
2023-03-21T08:55:27.917Z,1001.81
2023-03-21T08:56:27.877Z,1001.78
2023-03-21T08:57:27.921Z,1001.79
2023-03-21T08:58:29.420Z,1001.79
2023-03-21T08:59:27.859Z,1001.80
2023-03-21T09:00:27.918Z,1001.80
2023-03-21T09:01:27.886Z,1001.79
2023-03-21T09:02:27.844Z,1001.79
2023-03-21T09:03:27.812Z,1001.79
2023-03-21T09:04:27.933Z,1001.77
2023-03-21T09:05:28.491Z,1001.78
2023-03-21T09:06:27.856Z,1001.79
2023-03-21T09:07:27.816Z,1001.80
2023-03-21T09:08:28.617Z,1001.77
2023-03-21T09:09:27.895Z,1001.82
2023-03-21T09:10:27.726Z,1001.77
2023-03-21T09:11:27.741Z,1001.78
2023-03-21T09:12:27.771Z,1001.75
2023-03-21T09:13:27.780Z,1001.77
2023-03-21T09:14:29.127Z,1001.75
2023-03-21T09:15:27.688Z,1001.75
2023-03-21T09:16:27.694Z,1001.77
2023-03-21T09:17:27.716Z,1001.78
2023-03-21T09:18:27.761Z,1001.78
2023-03-21T09:19:27.657Z,1001.77
2023-03-21T09:20:27.686Z,1001.77
2023-03-21T09:21:27.628Z,1001.77
2023-03-21T09:22:27.630Z,1001.73
2023-03-21T09:23:27.652Z,1001.75
2023-03-21T09:24:27.732Z,1001.83
2023-03-21T09:25:27.601Z,1001.75
2023-03-21T09:26:27.687Z,1001.76
2023-03-21T09:27:27.548Z,1001.76
2023-03-21T09:28:27.537Z,1001.79
2023-03-21T09:29:27.575Z,1001.78
2023-03-21T09:30:27.572Z,1001.78
2023-03-21T09:31:27.563Z,1001.79
2023-03-21T09:32:27.491Z,1001.80
2023-03-21T09:33:27.489Z,1001.79
2023-03-21T09:34:27.514Z,1001.80
2023-03-21T09:35:27.494Z,1001.82
2023-03-21T09:36:27.456Z,1001.84
2023-03-21T09:37:27.461Z,1001.85
2023-03-21T09:38:27.439Z,1001.81
2023-03-21T09:39:27.450Z,1001.84
2023-03-21T09:40:27.425Z,1001.82
2023-03-21T09:41:27.424Z,1001.83
2023-03-21T09:42:27.390Z,1001.87
2023-03-21T09:43:27.423Z,1001.85
2023-03-21T09:44:27.431Z,1001.84
2023-03-21T09:45:27.381Z,1001.83
2023-03-21T09:46:27.447Z,1001.85
2023-03-21T09:47:27.345Z,1001.85
2023-03-21T09:48:27.527Z,1001.87
2023-03-21T09:49:27.333Z,1001.86
2023-03-21T09:50:27.705Z,1001.83
2023-03-21T09:51:27.305Z,1001.84
2023-03-21T09:52:27.290Z,1001.88
2023-03-21T09:53:27.325Z,1001.84
2023-03-21T09:54:27.531Z,1001.91
2023-03-21T09:55:27.629Z,1001.83
2023-03-21T09:56:27.292Z,1001.81
2023-03-21T09:57:27.269Z,1001.79
2023-03-21T09:58:27.269Z,1001.80
2023-03-21T09:59:27.404Z,1001.82
2023-03-21T10:00:27.375Z,1001.80
2023-03-21T10:01:27.297Z,1001.81
2023-03-21T10:02:27.463Z,1001.83
2023-03-21T10:03:27.169Z,1001.85
2023-03-21T10:04:27.257Z,1001.82
2023-03-21T10:05:27.146Z,1001.80
2023-03-21T10:06:27.191Z,1001.82
2023-03-21T10:07:27.120Z,1001.81
2023-03-21T10:08:27.270Z,1001.80
2023-03-21T10:09:27.105Z,1001.81
2023-03-21T10:10:27.112Z,1001.84
2023-03-21T10:11:27.122Z,1001.81
2023-03-21T10:12:27.056Z,1001.81
2023-03-21T10:13:27.048Z,1001.81
2023-03-21T10:14:27.053Z,1001.79
2023-03-21T10:15:27.033Z,1001.83
2023-03-21T10:16:27.060Z,1001.80
2023-03-21T10:17:27.016Z,1001.79
2023-03-21T10:18:27.003Z,1001.77
2023-03-21T10:19:27.001Z,1001.74
2023-03-21T10:20:27.009Z,1001.75
2023-03-21T10:21:56.487Z,1001.72
2023-03-21T10:22:26.967Z,1001.72
2023-03-21T10:23:26.947Z,1001.73
2023-03-21T10:24:26.945Z,1001.72
2023-03-21T10:25:26.925Z,1001.70
2023-03-21T10:26:26.947Z,1001.69
2023-03-21T10:27:26.975Z,1001.64
2023-03-21T10:28:26.920Z,1001.64
2023-03-21T10:29:27.039Z,1001.62
2023-03-21T10:30:26.951Z,1001.63
2023-03-21T10:31:27.100Z,1001.62
2023-03-21T10:32:26.937Z,1001.61
2023-03-21T10:33:26.835Z,1001.62
2023-03-21T10:34:26.871Z,1001.61
2023-03-21T10:35:26.860Z,1001.60
2023-03-21T10:36:26.854Z,1001.58
2023-03-21T10:37:26.850Z,1001.56
2023-03-21T10:38:26.798Z,1001.56
2023-03-21T10:39:26.800Z,1001.56
2023-03-21T10:40:26.847Z,1001.56
2023-03-21T10:41:26.779Z,1001.48
2023-03-21T10:42:26.799Z,1001.48
2023-03-21T10:43:26.744Z,1001.50
2023-03-21T10:44:26.724Z,1001.45
2023-03-21T10:45:26.720Z,1001.44
2023-03-21T10:46:26.921Z,1001.42
2023-03-21T10:47:27.125Z,1001.43
2023-03-21T10:48:26.864Z,1001.41
2023-03-21T10:49:26.907Z,1001.44
2023-03-21T10:50:26.721Z,1001.41
2023-03-21T10:51:26.681Z,1001.42
2023-03-21T10:52:26.644Z,1001.40
2023-03-21T10:53:26.680Z,1001.36
2023-03-21T10:54:26.640Z,1001.36
2023-03-21T10:55:26.599Z,1001.37
2023-03-21T10:56:26.723Z,1001.36
2023-03-21T10:57:26.615Z,1001.36
2023-03-21T10:58:26.658Z,1001.34
2023-03-21T10:59:26.562Z,1001.34
2023-03-21T11:00:26.636Z,1001.34
2023-03-21T11:01:26.613Z,1001.32
2023-03-21T11:02:26.706Z,1001.33
2023-03-21T11:03:26.573Z,1001.27
2023-03-21T11:04:26.525Z,1001.27
2023-03-21T11:05:26.492Z,1001.24
2023-03-21T11:06:26.564Z,1001.25
2023-03-21T11:07:26.525Z,1001.20
2023-03-21T11:08:26.570Z,1001.22
2023-03-21T11:09:26.508Z,1001.22
2023-03-21T11:10:28.849Z,1001.21
2023-03-21T11:11:26.482Z,1001.17
2023-03-21T11:12:26.446Z,1001.16
2023-03-21T11:13:26.453Z,1001.17
2023-03-21T11:14:29.853Z,1001.14
2023-03-21T11:15:26.394Z,1001.14
2023-03-21T11:16:26.529Z,1001.17
2023-03-21T11:17:26.355Z,1001.14
2023-03-21T11:18:26.391Z,1001.11
2023-03-21T11:19:26.397Z,1001.11
2023-03-21T11:20:26.340Z,1001.12
2023-03-21T11:21:26.330Z,1001.09
2023-03-21T11:22:26.370Z,1001.11
2023-03-21T11:23:26.322Z,1001.09
2023-03-21T11:24:26.388Z,1001.08
2023-03-21T11:25:26.319Z,1001.10
2023-03-21T11:26:26.278Z,1001.05
2023-03-21T11:27:26.261Z,1000.99
2023-03-21T11:28:26.266Z,1000.97
2023-03-21T11:29:26.267Z,1000.94
2023-03-21T11:30:26.289Z,1000.99
2023-03-21T11:31:26.516Z,1000.96
2023-03-21T11:32:26.511Z,1000.95
2023-03-21T11:33:26.519Z,1000.95
2023-03-21T11:34:26.228Z,1000.93
2023-03-21T11:35:26.186Z,1000.91
2023-03-21T11:36:26.228Z,1000.88
2023-03-21T11:37:26.194Z,1000.84
2023-03-21T11:38:26.164Z,1000.85
2023-03-21T11:39:26.153Z,1000.80
2023-03-21T11:40:26.201Z,1000.79
2023-03-21T11:41:26.108Z,1000.83
2023-03-21T11:42:26.127Z,1000.82
2023-03-21T11:43:26.107Z,1000.82
2023-03-21T11:44:26.221Z,1000.82
2023-03-21T11:45:26.216Z,1000.80
2023-03-21T11:46:26.156Z,1000.81
2023-03-21T11:47:26.052Z,1000.80
2023-03-21T11:48:26.087Z,1000.82
2023-03-21T11:49:26.064Z,1000.82
2023-03-21T11:50:26.030Z,1000.81
2023-03-21T11:51:26.058Z,1000.75
2023-03-21T11:52:26.069Z,1000.75
2023-03-21T11:53:26.059Z,1000.73
2023-03-21T11:54:26.082Z,1000.72
2023-03-21T11:55:25.967Z,1000.71
2023-03-21T11:56:26.027Z,1000.67
2023-03-21T11:57:25.993Z,1000.69
2023-03-21T11:58:26.110Z,1000.69
2023-03-21T11:59:25.932Z,1000.65
2023-03-21T12:00:26.146Z,1000.64
2023-03-21T12:01:25.905Z,1000.60
2023-03-21T12:02:25.963Z,1000.60
2023-03-21T12:03:27.339Z,1000.56
2023-03-21T12:04:25.961Z,1000.56
2023-03-21T12:05:25.858Z,1000.55
2023-03-21T12:06:26.064Z,1000.52
2023-03-21T12:07:25.853Z,1000.50
2023-03-21T12:08:25.852Z,1000.44
2023-03-21T12:09:25.854Z,1000.39
2023-03-21T12:10:26.034Z,1000.37
2023-03-21T12:11:25.918Z,1000.36
2023-03-21T12:12:37.979Z,1000.33
2023-03-21T12:13:25.837Z,1000.31
2023-03-21T12:14:25.777Z,1000.30
2023-03-21T12:15:25.791Z,1000.34
2023-03-21T12:16:26.031Z,1000.31
2023-03-21T12:17:26.548Z,1000.31
2023-03-21T12:18:25.906Z,1000.31
2023-03-21T12:19:25.923Z,1000.32
2023-03-21T12:20:25.773Z,1000.36
2023-03-21T12:21:25.706Z,1000.38
2023-03-21T12:22:25.694Z,1000.36
2023-03-21T12:23:27.021Z,1000.35
2023-03-21T12:24:25.730Z,1000.35